sensor_id;sensor_type;location;lat;lon;timestamp;pressure;altitude;pressure_sealevel;temperature
20736;BMP180;10528;52.124;5.196;2023-03-01T00:01:38;103089.00;;;6.50
20736;BMP180;10528;52.124;5.196;2023-03-01T00:04:04;103091.00;;;6.50
20736;BMP180;10528;52.124;5.196;2023-03-01T00:06:31;103094.00;;;6.50
20736;BMP180;10528;52.124;5.196;2023-03-01T00:08:59;103085.00;;;6.40
20736;BMP180;10528;52.124;5.196;2023-03-01T00:11:29;103090.00;;;6.40
20736;BMP180;10528;52.124;5.196;2023-03-01T00:14:00;103092.00;;;6.40
20736;BMP180;10528;52.124;5.196;2023-03-01T00:16:32;103085.00;;;6.40
20736;BMP180;10528;52.124;5.196;2023-03-01T00:19:01;103080.00;;;6.40
20736;BMP180;10528;52.124;5.196;2023-03-01T00:21:28;103077.00;;;6.40
20736;BMP180;10528;52.124;5.196;2023-03-01T00:23:56;103087.00;;;6.30
20736;BMP180;10528;52.124;5.196;2023-03-01T00:26:25;103085.00;;;6.30
20736;BMP180;10528;52.124;5.196;2023-03-01T00:28:52;103084.00;;;6.30
20736;BMP180;10528;52.124;5.196;2023-03-01T00:31:23;103085.00;;;6.30
20736;BMP180;10528;52.124;5.196;2023-03-01T00:33:56;103076.00;;;6.30
20736;BMP180;10528;52.124;5.196;2023-03-01T00:36:30;103070.00;;;6.20
20736;BMP180;10528;52.124;5.196;2023-03-01T00:38:59;103072.00;;;6.20
20736;BMP180;10528;52.124;5.196;2023-03-01T00:41:26;103079.00;;;6.20
20736;BMP180;10528;52.124;5.196;2023-03-01T00:43:54;103071.00;;;6.20
20736;BMP180;10528;52.124;5.196;2023-03-01T00:46:24;103071.00;;;6.20
20736;BMP180;10528;52.124;5.196;2023-03-01T00:48:51;103081.00;;;6.20
20736;BMP180;10528;52.124;5.196;2023-03-01T00:51:22;103064.00;;;6.10
20736;BMP180;10528;52.124;5.196;2023-03-01T00:53:59;103064.00;;;6.10
20736;BMP180;10528;52.124;5.196;2023-03-01T00:56:27;103066.00;;;6.10
20736;BMP180;10528;52.124;5.196;2023-03-01T00:58:54;103062.00;;;6.10
20736;BMP180;10528;52.124;5.196;2023-03-01T01:01:25;103067.00;;;6.10
20736;BMP180;10528;52.124;5.196;2023-03-01T01:03:58;103049.00;;;6.00
20736;BMP180;10528;52.124;5.196;2023-03-01T01:06:29;103059.00;;;6.00
20736;BMP180;10528;52.124;5.196;2023-03-01T01:08:58;103063.00;;;6.00
20736;BMP180;10528;52.124;5.196;2023-03-01T01:11:28;103052.00;;;6.00
20736;BMP180;10528;52.124;5.196;2023-03-01T01:13:57;103061.00;;;6.00
20736;BMP180;10528;52.124;5.196;2023-03-01T01:16:27;103056.00;;;6.00
20736;BMP180;10528;52.124;5.196;2023-03-01T01:18:56;103050.00;;;6.00
20736;BMP180;10528;52.124;5.196;2023-03-01T01:21:25;103048.00;;;6.00
20736;BMP180;10528;52.124;5.196;2023-03-01T01:23:52;103043.00;;;6.00
20736;BMP180;10528;52.124;5.196;2023-03-01T01:26:27;103027.00;;;6.00
20736;BMP180;10528;52.124;5.196;2023-03-01T01:28:56;103038.00;;;6.00
20736;BMP180;10528;52.124;5.196;2023-03-01T01:31:24;103029.00;;;5.90
20736;BMP180;10528;52.124;5.196;2023-03-01T01:33:52;103032.00;;;5.90
20736;BMP180;10528;52.124;5.196;2023-03-01T01:36:21;103020.00;;;5.90
20736;BMP180;10528;52.124;5.196;2023-03-01T01:38:48;103020.00;;;5.90
20736;BMP180;10528;52.124;5.196;2023-03-01T01:41:16;103023.00;;;5.90
20736;BMP180;10528;52.124;5.196;2023-03-01T01:44:20;103017.00;;;5.80
20736;BMP180;10528;52.124;5.196;2023-03-01T01:49:49;103028.00;;;5.80
20736;BMP180;10528;52.124;5.196;2023-03-01T01:52:27;103024.00;;;5.70
20736;BMP180;10528;52.124;5.196;2023-03-01T01:55:02;103021.00;;;5.70
20736;BMP180;10528;52.124;5.196;2023-03-01T01:57:42;103015.00;;;5.70
20736;BMP180;10528;52.124;5.196;2023-03-01T02:00:19;103014.00;;;5.70
20736;BMP180;10528;52.124;5.196;2023-03-01T02:02:50;103019.00;;;5.70
20736;BMP180;10528;52.124;5.196;2023-03-01T02:06:01;103012.00;;;5.70
20736;BMP180;10528;52.124;5.196;2023-03-01T02:08:28;103011.00;;;5.60
20736;BMP180;10528;52.124;5.196;2023-03-01T02:10:58;103005.00;;;5.60
20736;BMP180;10528;52.124;5.196;2023-03-01T02:13:27;103002.00;;;5.60
20736;BMP180;10528;52.124;5.196;2023-03-01T02:15:54;103014.00;;;5.60
20736;BMP180;10528;52.124;5.196;2023-03-01T02:18:23;103008.00;;;5.60
20736;BMP180;10528;52.124;5.196;2023-03-01T02:23:38;103002.00;;;5.60
20736;BMP180;10528;52.124;5.196;2023-03-01T02:28:58;103003.00;;;5.50
20736;BMP180;10528;52.124;5.196;2023-03-01T02:31:25;103000.00;;;5.50
20736;BMP180;10528;52.124;5.196;2023-03-01T02:34:16;103008.00;;;5.50
20736;BMP180;10528;52.124;5.196;2023-03-01T02:37:01;102994.00;;;5.50
20736;BMP180;10528;52.124;5.196;2023-03-01T02:39:40;102990.00;;;5.40
20736;BMP180;10528;52.124;5.196;2023-03-01T02:42:23;102989.00;;;5.40
20736;BMP180;10528;52.124;5.196;2023-03-01T02:44:53;102989.00;;;5.40
20736;BMP180;10528;52.124;5.196;2023-03-01T02:47:20;102986.00;;;5.40
20736;BMP180;10528;52.124;5.196;2023-03-01T02:49:47;102978.00;;;5.40
20736;BMP180;10528;52.124;5.196;2023-03-01T02:55:12;102978.00;;;5.40
20736;BMP180;10528;52.124;5.196;2023-03-01T02:57:44;102978.00;;;5.40
20736;BMP180;10528;52.124;5.196;2023-03-01T03:00:42;102976.00;;;5.30
20736;BMP180;10528;52.124;5.196;2023-03-01T03:03:19;102969.00;;;5.30
20736;BMP180;10528;52.124;5.196;2023-03-01T03:05:47;102971.00;;;5.30
20736;BMP180;10528;52.124;5.196;2023-03-01T03:08:15;102963.00;;;5.30
20736;BMP180;10528;52.124;5.196;2023-03-01T03:10:51;102959.00;;;5.30
20736;BMP180;10528;52.124;5.196;2023-03-01T03:13:18;102970.00;;;5.30
20736;BMP180;10528;52.124;5.196;2023-03-01T03:15:45;102957.00;;;5.30
20736;BMP180;10528;52.124;5.196;2023-03-01T03:18:16;102972.00;;;5.30
20736;BMP180;10528;52.124;5.196;2023-03-01T03:20:44;102967.00;;;5.20
20736;BMP180;10528;52.124;5.196;2023-03-01T03:23:13;102969.00;;;5.20
20736;BMP180;10528;52.124;5.196;2023-03-01T03:25:40;102961.00;;;5.20
20736;BMP180;10528;52.124;5.196;2023-03-01T03:28:07;102953.00;;;5.20
20736;BMP180;10528;52.124;5.196;2023-03-01T03:30:40;102949.00;;;5.20
20736;BMP180;10528;52.124;5.196;2023-03-01T03:33:09;102950.00;;;5.20
20736;BMP180;10528;52.124;5.196;2023-03-01T03:35:45;102952.00;;;5.10
20736;BMP180;10528;52.124;5.196;2023-03-01T03:38:15;102942.00;;;5.10
20736;BMP180;10528;52.124;5.196;2023-03-01T03:41:00;102946.00;;;5.10
20736;BMP180;10528;52.124;5.196;2023-03-01T03:43:31;102951.00;;;5.10
20736;BMP180;10528;52.124;5.196;2023-03-01T03:45:58;102952.00;;;5.10
20736;BMP180;10528;52.124;5.196;2023-03-01T03:48:26;102947.00;;;5.10
20736;BMP180;10528;52.124;5.196;2023-03-01T03:50:55;102948.00;;;5.10
20736;BMP180;10528;52.124;5.196;2023-03-01T03:53:25;102939.00;;;5.10
20736;BMP180;10528;52.124;5.196;2023-03-01T03:55:53;102937.00;;;5.10
20736;BMP180;10528;52.124;5.196;2023-03-01T03:58:23;102937.00;;;5.00
20736;BMP180;10528;52.124;5.196;2023-03-01T04:00:55;102929.00;;;5.00
20736;BMP180;10528;52.124;5.196;2023-03-01T04:03:27;102926.00;;;5.00
20736;BMP180;10528;52.124;5.196;2023-03-01T04:05:57;102934.00;;;5.00
20736;BMP180;10528;52.124;5.196;2023-03-01T04:08:25;102930.00;;;5.00
20736;BMP180;10528;52.124;5.196;2023-03-01T04:10:58;102933.00;;;5.00
20736;BMP180;10528;52.124;5.196;2023-03-01T04:13:26;102934.00;;;4.90
20736;BMP180;10528;52.124;5.196;2023-03-01T04:15:54;102938.00;;;4.90
20736;BMP180;10528;52.124;5.196;2023-03-01T04:18:23;102932.00;;;4.90
20736;BMP180;10528;52.124;5.196;2023-03-01T04:20:53;102937.00;;;4.90
20736;BMP180;10528;52.124;5.196;2023-03-01T04:23:21;102939.00;;;4.90
20736;BMP180;10528;52.124;5.196;2023-03-01T04:25:56;102936.00;;;4.90
20736;BMP180;10528;52.124;5.196;2023-03-01T04:31:10;102937.00;;;4.80
20736;BMP180;10528;52.124;5.196;2023-03-01T04:33:48;102941.00;;;4.80
20736;BMP180;10528;52.124;5.196;2023-03-01T04:36:17;102940.00;;;4.80
20736;BMP180;10528;52.124;5.196;2023-03-01T04:38:45;102936.00;;;4.80
20736;BMP180;10528;52.124;5.196;2023-03-01T04:41:17;102940.00;;;4.80
20736;BMP180;10528;52.124;5.196;2023-03-01T04:43:45;102940.00;;;4.80
20736;BMP180;10528;52.124;5.196;2023-03-01T04:46:17;102932.00;;;4.80
20736;BMP180;10528;52.124;5.196;2023-03-01T04:48:45;102933.00;;;4.80
20736;BMP180;10528;52.124;5.196;2023-03-01T04:51:14;102931.00;;;4.80
20736;BMP180;10528;52.124;5.196;2023-03-01T04:53:43;102928.00;;;4.80
20736;BMP180;10528;52.124;5.196;2023-03-01T04:56:11;102922.00;;;4.70
20736;BMP180;10528;52.124;5.196;2023-03-01T04:58:38;102914.00;;;4.70
20736;BMP180;10528;52.124;5.196;2023-03-01T05:01:14;102919.00;;;4.70
20736;BMP180;10528;52.124;5.196;2023-03-01T05:03:44;102908.00;;;4.70
20736;BMP180;10528;52.124;5.196;2023-03-01T05:06:12;102913.00;;;4.70
20736;BMP180;10528;52.124;5.196;2023-03-01T05:08:41;102908.00;;;4.60
20736;BMP180;10528;52.124;5.196;2023-03-01T05:11:08;102907.00;;;4.60
20736;BMP180;10528;52.124;5.196;2023-03-01T05:13:37;102901.00;;;4.60
20736;BMP180;10528;52.124;5.196;2023-03-01T05:16:06;102888.00;;;4.60
20736;BMP180;10528;52.124;5.196;2023-03-01T05:18:39;102903.00;;;4.60
20736;BMP180;10528;52.124;5.196;2023-03-01T05:21:14;102901.00;;;4.60
20736;BMP180;10528;52.124;5.196;2023-03-01T05:23:42;102891.00;;;4.60
20736;BMP180;10528;52.124;5.196;2023-03-01T05:26:10;102884.00;;;4.60
20736;BMP180;10528;52.124;5.196;2023-03-01T05:28:59;102879.00;;;4.60
20736;BMP180;10528;52.124;5.196;2023-03-01T05:31:27;102874.00;;;4.60
20736;BMP180;10528;52.124;5.196;2023-03-01T05:33:54;102870.00;;;4.50
20736;BMP180;10528;52.124;5.196;2023-03-01T05:36:21;102870.00;;;4.50
20736;BMP180;10528;52.124;5.196;2023-03-01T05:38:48;102871.00;;;4.50
20736;BMP180;10528;52.124;5.196;2023-03-01T05:41:15;102872.00;;;4.50
20736;BMP180;10528;52.124;5.196;2023-03-01T05:43:43;102863.00;;;4.50
20736;BMP180;10528;52.124;5.196;2023-03-01T05:46:11;102861.00;;;4.50
20736;BMP180;10528;52.124;5.196;2023-03-01T05:48:40;102863.00;;;4.50
20736;BMP180;10528;52.124;5.196;2023-03-01T05:51:07;102853.00;;;4.50
20736;BMP180;10528;52.124;5.196;2023-03-01T05:53:34;102857.00;;;4.50
20736;BMP180;10528;52.124;5.196;2023-03-01T05:56:04;102845.00;;;4.50
20736;BMP180;10528;52.124;5.196;2023-03-01T05:58:31;102847.00;;;4.40
20736;BMP180;10528;52.124;5.196;2023-03-01T06:00:58;102855.00;;;4.40
20736;BMP180;10528;52.124;5.196;2023-03-01T06:03:25;102846.00;;;4.40
20736;BMP180;10528;52.124;5.196;2023-03-01T06:05:57;102848.00;;;4.40
20736;BMP180;10528;52.124;5.196;2023-03-01T06:08:25;102851.00;;;4.40
20736;BMP180;10528;52.124;5.196;2023-03-01T06:10:54;102852.00;;;4.40
20736;BMP180;10528;52.124;5.196;2023-03-01T06:13:21;102854.00;;;4.40
20736;BMP180;10528;52.124;5.196;2023-03-01T06:15:48;102854.00;;;4.40
20736;BMP180;10528;52.124;5.196;2023-03-01T06:18:15;102850.00;;;4.40
20736;BMP180;10528;52.124;5.196;2023-03-01T06:20:42;102842.00;;;4.30
20736;BMP180;10528;52.124;5.196;2023-03-01T06:23:09;102859.00;;;4.30
20736;BMP180;10528;52.124;5.196;2023-03-01T06:25:37;102850.00;;;4.30
20736;BMP180;10528;52.124;5.196;2023-03-01T06:28:04;102852.00;;;4.30
20736;BMP180;10528;52.124;5.196;2023-03-01T06:30:31;102855.00;;;4.30
20736;BMP180;10528;52.124;5.196;2023-03-01T06:32:58;102864.00;;;4.30
20736;BMP180;10528;52.124;5.196;2023-03-01T06:35:29;102859.00;;;4.30
20736;BMP180;10528;52.124;5.196;2023-03-01T06:37:59;102858.00;;;4.30
20736;BMP180;10528;52.124;5.196;2023-03-01T06:40:27;102855.00;;;4.30
20736;BMP180;10528;52.124;5.196;2023-03-01T06:42:54;102868.00;;;4.30
20736;BMP180;10528;52.124;5.196;2023-03-01T06:45:21;102868.00;;;4.30
20736;BMP180;10528;52.124;5.196;2023-03-01T06:47:48;102853.00;;;4.30
20736;BMP180;10528;52.124;5.196;2023-03-01T06:50:17;102867.00;;;4.30
20736;BMP180;10528;52.124;5.196;2023-03-01T06:52:44;102859.00;;;4.30
20736;BMP180;10528;52.124;5.196;2023-03-01T06:55:12;102852.00;;;4.40
20736;BMP180;10528;52.124;5.196;2023-03-01T06:57:39;102863.00;;;4.40
20736;BMP180;10528;52.124;5.196;2023-03-01T07:00:07;102872.00;;;4.40
20736;BMP180;10528;52.124;5.196;2023-03-01T07:02:34;102854.00;;;4.40
20736;BMP180;10528;52.124;5.196;2023-03-01T07:05:01;102859.00;;;4.40
20736;BMP180;10528;52.124;5.196;2023-03-01T07:07:28;102858.00;;;4.40
20736;BMP180;10528;52.124;5.196;2023-03-01T07:09:55;102854.00;;;4.40
20736;BMP180;10528;52.124;5.196;2023-03-01T07:12:22;102855.00;;;4.50
20736;BMP180;10528;52.124;5.196;2023-03-01T07:14:49;102860.00;;;4.50
20736;BMP180;10528;52.124;5.196;2023-03-01T07:17:16;102855.00;;;4.60
20736;BMP180;10528;52.124;5.196;2023-03-01T07:19:43;102851.00;;;4.60
20736;BMP180;10528;52.124;5.196;2023-03-01T07:22:11;102862.00;;;4.70
20736;BMP180;10528;52.124;5.196;2023-03-01T07:24:38;102867.00;;;4.80
20736;BMP180;10528;52.124;5.196;2023-03-01T07:27:05;102866.00;;;4.80
20736;BMP180;10528;52.124;5.196;2023-03-01T07:29:32;102861.00;;;4.90
20736;BMP180;10528;52.124;5.196;2023-03-01T07:31:58;102864.00;;;4.90
20736;BMP180;10528;52.124;5.196;2023-03-01T07:34:26;102864.00;;;4.90
20736;BMP180;10528;52.124;5.196;2023-03-01T07:36:52;102874.00;;;5.00
20736;BMP180;10528;52.124;5.196;2023-03-01T07:39:19;102873.00;;;5.00
20736;BMP180;10528;52.124;5.196;2023-03-01T07:41:46;102876.00;;;5.10
20736;BMP180;10528;52.124;5.196;2023-03-01T07:44:13;102874.00;;;5.10
20736;BMP180;10528;52.124;5.196;2023-03-01T07:46:40;102877.00;;;5.10
20736;BMP180;10528;52.124;5.196;2023-03-01T07:49:07;102883.00;;;5.10
20736;BMP180;10528;52.124;5.196;2023-03-01T07:51:33;102876.00;;;5.20
20736;BMP180;10528;52.124;5.196;2023-03-01T07:54:00;102872.00;;;5.20
20736;BMP180;10528;52.124;5.196;2023-03-01T07:56:27;102870.00;;;5.20
20736;BMP180;10528;52.124;5.196;2023-03-01T07:58:55;102877.00;;;5.30
20736;BMP180;10528;52.124;5.196;2023-03-01T08:01:22;102885.00;;;5.30
20736;BMP180;10528;52.124;5.196;2023-03-01T08:03:49;102885.00;;;5.40
20736;BMP180;10528;52.124;5.196;2023-03-01T08:06:17;102880.00;;;5.40
20736;BMP180;10528;52.124;5.196;2023-03-01T08:08:45;102886.00;;;5.50
20736;BMP180;10528;52.124;5.196;2023-03-01T08:11:14;102882.00;;;5.50
20736;BMP180;10528;52.124;5.196;2023-03-01T08:13:43;102890.00;;;5.60
20736;BMP180;10528;52.124;5.196;2023-03-01T08:16:13;102883.00;;;5.60
20736;BMP180;10528;52.124;5.196;2023-03-01T08:18:40;102889.00;;;5.70
20736;BMP180;10528;52.124;5.196;2023-03-01T08:21:15;102871.00;;;5.80
20736;BMP180;10528;52.124;5.196;2023-03-01T08:23:42;102872.00;;;5.80
20736;BMP180;10528;52.124;5.196;2023-03-01T08:26:20;102862.00;;;5.90
20736;BMP180;10528;52.124;5.196;2023-03-01T08:28:49;102874.00;;;5.90
20736;BMP180;10528;52.124;5.196;2023-03-01T08:31:33;102876.00;;;6.00
20736;BMP180;10528;52.124;5.196;2023-03-01T08:34:06;102870.00;;;6.00
20736;BMP180;10528;52.124;5.196;2023-03-01T08:36:38;102881.00;;;6.10
20736;BMP180;10528;52.124;5.196;2023-03-01T08:39:09;102872.00;;;6.10
20736;BMP180;10528;52.124;5.196;2023-03-01T08:41:37;102869.00;;;6.20
20736;BMP180;10528;52.124;5.196;2023-03-01T08:44:05;102871.00;;;6.30
20736;BMP180;10528;52.124;5.196;2023-03-01T08:46:41;102872.00;;;6.30
20736;BMP180;10528;52.124;5.196;2023-03-01T08:49:17;102876.00;;;6.30
20736;BMP180;10528;52.124;5.196;2023-03-01T08:51:46;102865.00;;;6.40
20736;BMP180;10528;52.124;5.196;2023-03-01T08:54:17;102872.00;;;6.40
20736;BMP180;10528;52.124;5.196;2023-03-01T08:56:45;102859.00;;;6.50
20736;BMP180;10528;52.124;5.196;2023-03-01T08:59:14;102855.00;;;6.50
20736;BMP180;10528;52.124;5.196;2023-03-01T09:01:42;102855.00;;;6.60
20736;BMP180;10528;52.124;5.196;2023-03-01T09:04:13;102863.00;;;6.70
20736;BMP180;10528;52.124;5.196;2023-03-01T09:06:41;102853.00;;;6.70
20736;BMP180;10528;52.124;5.196;2023-03-01T09:09:17;102852.00;;;6.80
20736;BMP180;10528;52.124;5.196;2023-03-01T09:11:45;102838.00;;;6.90
20736;BMP180;10528;52.124;5.196;2023-03-01T09:14:14;102843.00;;;6.90
20736;BMP180;10528;52.124;5.196;2023-03-01T09:16:41;102838.00;;;7.00
20736;BMP180;10528;52.124;5.196;2023-03-01T09:19:08;102821.00;;;7.00
20736;BMP180;10528;52.124;5.196;2023-03-01T09:21:35;102824.00;;;7.10
20736;BMP180;10528;52.124;5.196;2023-03-01T09:24:13;102825.00;;;7.20
20736;BMP180;10528;52.124;5.196;2023-03-01T09:26:42;102831.00;;;7.30
20736;BMP180;10528;52.124;5.196;2023-03-01T09:29:09;102827.00;;;7.40
20736;BMP180;10528;52.124;5.196;2023-03-01T09:31:37;102825.00;;;7.40
20736;BMP180;10528;52.124;5.196;2023-03-01T09:34:05;102807.00;;;7.50
20736;BMP180;10528;52.124;5.196;2023-03-01T09:36:32;102817.00;;;7.60
20736;BMP180;10528;52.124;5.196;2023-03-01T09:39:00;102819.00;;;7.70
20736;BMP180;10528;52.124;5.196;2023-03-01T09:47:33;102805.00;;;7.90
20736;BMP180;10528;52.124;5.196;2023-03-01T09:50:17;102805.00;;;8.00
20736;BMP180;10528;52.124;5.196;2023-03-01T09:53:10;102808.00;;;8.10
20736;BMP180;10528;52.124;5.196;2023-03-01T09:58:55;102814.00;;;8.40
20736;BMP180;10528;52.124;5.196;2023-03-01T10:01:59;102814.00;;;8.50
20736;BMP180;10528;52.124;5.196;2023-03-01T10:04:50;102819.00;;;8.60
20736;BMP180;10528;52.124;5.196;2023-03-01T10:10:44;102805.00;;;8.80
20736;BMP180;10528;52.124;5.196;2023-03-01T10:16:16;102817.00;;;9.00
20736;BMP180;10528;52.124;5.196;2023-03-01T10:18:48;102818.00;;;9.10
20736;BMP180;10528;52.124;5.196;2023-03-01T10:21:19;102814.00;;;9.20
20736;BMP180;10528;52.124;5.196;2023-03-01T10:23:51;102805.00;;;9.30
20736;BMP180;10528;52.124;5.196;2023-03-01T10:26:43;102809.00;;;9.50
20736;BMP180;10528;52.124;5.196;2023-03-01T10:29:13;102795.00;;;9.60
20736;BMP180;10528;52.124;5.196;2023-03-01T10:31:51;102792.00;;;9.70
20736;BMP180;10528;52.124;5.196;2023-03-01T10:34:30;102789.00;;;9.80
20736;BMP180;10528;52.124;5.196;2023-03-01T10:37:19;102788.00;;;10.00
20736;BMP180;10528;52.124;5.196;2023-03-01T10:40:05;102787.00;;;10.10
20736;BMP180;10528;52.124;5.196;2023-03-01T10:42:46;102781.00;;;10.20
20736;BMP180;10528;52.124;5.196;2023-03-01T10:48:08;102788.00;;;10.40
20736;BMP180;10528;52.124;5.196;2023-03-01T10:50:44;102776.00;;;10.40
20736;BMP180;10528;52.124;5.196;2023-03-01T10:53:28;102782.00;;;10.50
20736;BMP180;10528;52.124;5.196;2023-03-01T10:56:12;102761.00;;;10.60
20736;BMP180;10528;52.124;5.196;2023-03-01T10:59:00;102765.00;;;10.70
20736;BMP180;10528;52.124;5.196;2023-03-01T11:01:34;102756.00;;;10.80
20736;BMP180;10528;52.124;5.196;2023-03-01T11:06:34;102746.00;;;10.90
20736;BMP180;10528;52.124;5.196;2023-03-01T11:09:17;102746.00;;;11.00
20736;BMP180;10528;52.124;5.196;2023-03-01T11:11:45;102729.00;;;11.10
20736;BMP180;10528;52.124;5.196;2023-03-01T11:14:38;102735.00;;;11.20
20736;BMP180;10528;52.124;5.196;2023-03-01T11:17:30;102727.00;;;11.20
20736;BMP180;10528;52.124;5.196;2023-03-01T11:22:51;102717.00;;;11.30
20736;BMP180;10528;52.124;5.196;2023-03-01T11:25:26;102717.00;;;11.40
20736;BMP180;10528;52.124;5.196;2023-03-01T11:27:54;102723.00;;;11.50
20736;BMP180;10528;52.124;5.196;2023-03-01T11:30:34;102719.00;;;11.60
20736;BMP180;10528;52.124;5.196;2023-03-01T11:33:20;102723.00;;;11.60
20736;BMP180;10528;52.124;5.196;2023-03-01T11:38:56;102715.00;;;11.70
20736;BMP180;10528;52.124;5.196;2023-03-01T11:41:31;102715.00;;;11.70
20736;BMP180;10528;52.124;5.196;2023-03-01T11:44:10;102719.00;;;11.70
20736;BMP180;10528;52.124;5.196;2023-03-01T11:55:46;102706.00;;;11.90
20736;BMP180;10528;52.124;5.196;2023-03-01T12:01:35;102705.00;;;12.00
20736;BMP180;10528;52.124;5.196;2023-03-01T12:07:26;102703.00;;;12.10
20736;BMP180;10528;52.124;5.196;2023-03-01T12:10:14;102714.00;;;12.10
20736;BMP180;10528;52.124;5.196;2023-03-01T12:13:13;102703.00;;;12.00
20736;BMP180;10528;52.124;5.196;2023-03-01T12:19:34;102696.00;;;12.00
20736;BMP180;10528;52.124;5.196;2023-03-01T12:22:29;102689.00;;;12.00
20736;BMP180;10528;52.124;5.196;2023-03-01T12:25:35;102697.00;;;12.00
20736;BMP180;10528;52.124;5.196;2023-03-01T12:28:30;102679.00;;;12.10
20736;BMP180;10528;52.124;5.196;2023-03-01T12:40:21;102675.00;;;12.30
20736;BMP180;10528;52.124;5.196;2023-03-01T12:43:41;102668.00;;;12.20
20736;BMP180;10528;52.124;5.196;2023-03-01T12:46:46;102669.00;;;12.20
20736;BMP180;10528;52.124;5.196;2023-03-01T12:52:11;102667.00;;;12.30
20736;BMP180;10528;52.124;5.196;2023-03-01T12:54:40;102655.00;;;12.30
20736;BMP180;10528;52.124;5.196;2023-03-01T12:57:38;102655.00;;;12.40
20736;BMP180;10528;52.124;5.196;2023-03-01T13:00:28;102646.00;;;12.30
20736;BMP180;10528;52.124;5.196;2023-03-01T13:03:30;102650.00;;;12.20
20736;BMP180;10528;52.124;5.196;2023-03-01T13:06:17;102644.00;;;12.30
20736;BMP180;10528;52.124;5.196;2023-03-01T13:11:30;102626.00;;;12.40
20736;BMP180;10528;52.124;5.196;2023-03-01T13:16:54;102629.00;;;12.40
20736;BMP180;10528;52.124;5.196;2023-03-01T13:19:25;102634.00;;;12.40
20736;BMP180;10528;52.124;5.196;2023-03-01T13:21:54;102620.00;;;12.40
20736;BMP180;10528;52.124;5.196;2023-03-01T13:24:38;102619.00;;;12.50
20736;BMP180;10528;52.124;5.196;2023-03-01T13:29:57;102606.00;;;12.50
20736;BMP180;10528;52.124;5.196;2023-03-01T13:32:35;102593.00;;;12.50
20736;BMP180;10528;52.124;5.196;2023-03-01T13:37:46;102595.00;;;12.60
20736;BMP180;10528;52.124;5.196;2023-03-01T13:42:54;102577.00;;;12.60
20736;BMP180;10528;52.124;5.196;2023-03-01T13:45:42;102583.00;;;12.60
20736;BMP180;10528;52.124;5.196;2023-03-01T13:48:21;102585.00;;;12.70
20736;BMP180;10528;52.124;5.196;2023-03-01T13:50:58;102584.00;;;12.60
20736;BMP180;10528;52.124;5.196;2023-03-01T13:53:33;102581.00;;;12.60
20736;BMP180;10528;52.124;5.196;2023-03-01T13:56:24;102578.00;;;12.60
20736;BMP180;10528;52.124;5.196;2023-03-01T13:59:01;102579.00;;;12.60
20736;BMP180;10528;52.124;5.196;2023-03-01T14:01:32;102557.00;;;12.60
20736;BMP180;10528;52.124;5.196;2023-03-01T14:04:02;102564.00;;;12.60
20736;BMP180;10528;52.124;5.196;2023-03-01T14:06:32;102553.00;;;12.60
20736;BMP180;10528;52.124;5.196;2023-03-01T14:09:20;102542.00;;;12.60
20736;BMP180;10528;52.124;5.196;2023-03-01T14:14:48;102557.00;;;12.60
20736;BMP180;10528;52.124;5.196;2023-03-01T14:17:27;102540.00;;;12.60
20736;BMP180;10528;52.124;5.196;2023-03-01T14:20:11;102534.00;;;12.50
20736;BMP180;10528;52.124;5.196;2023-03-01T14:22:42;102536.00;;;12.60
20736;BMP180;10528;52.124;5.196;2023-03-01T14:25:34;102543.00;;;12.50
20736;BMP180;10528;52.124;5.196;2023-03-01T14:28:23;102523.00;;;12.50
20736;BMP180;10528;52.124;5.196;2023-03-01T14:30:56;102535.00;;;12.50
20736;BMP180;10528;52.124;5.196;2023-03-01T14:33:36;102514.00;;;12.50
20736;BMP180;10528;52.124;5.196;2023-03-01T14:36:10;102505.00;;;12.50
20736;BMP180;10528;52.124;5.196;2023-03-01T14:38:44;102511.00;;;12.50
20736;BMP180;10528;52.124;5.196;2023-03-01T14:41:22;102503.00;;;12.50
20736;BMP180;10528;52.124;5.196;2023-03-01T14:44:00;102498.00;;;12.60
20736;BMP180;10528;52.124;5.196;2023-03-01T14:46:37;102500.00;;;12.50
20736;BMP180;10528;52.124;5.196;2023-03-01T14:49:18;102497.00;;;12.60
20736;BMP180;10528;52.124;5.196;2023-03-01T14:52:07;102510.00;;;12.60
20736;BMP180;10528;52.124;5.196;2023-03-01T14:54:53;102514.00;;;12.50
20736;BMP180;10528;52.124;5.196;2023-03-01T14:57:24;102506.00;;;12.50
20736;BMP180;10528;52.124;5.196;2023-03-01T14:59:58;102504.00;;;12.50
20736;BMP180;10528;52.124;5.196;2023-03-01T15:02:29;102501.00;;;12.50
20736;BMP180;10528;52.124;5.196;2023-03-01T15:05:01;102498.00;;;12.50
20736;BMP180;10528;52.124;5.196;2023-03-01T15:07:33;102494.00;;;12.50
20736;BMP180;10528;52.124;5.196;2023-03-01T15:10:04;102491.00;;;12.50
20736;BMP180;10528;52.124;5.196;2023-03-01T15:12:40;102496.00;;;12.50
20736;BMP180;10528;52.124;5.196;2023-03-01T15:17:59;102489.00;;;12.50
20736;BMP180;10528;52.124;5.196;2023-03-01T15:20:28;102484.00;;;12.50
20736;BMP180;10528;52.124;5.196;2023-03-01T15:22:59;102484.00;;;12.60
20736;BMP180;10528;52.124;5.196;2023-03-01T15:25:29;102477.00;;;12.60
20736;BMP180;10528;52.124;5.196;2023-03-01T15:27:59;102476.00;;;12.60
20736;BMP180;10528;52.124;5.196;2023-03-01T15:30:33;102479.00;;;12.60
20736;BMP180;10528;52.124;5.196;2023-03-01T15:33:36;102483.00;;;12.60
20736;BMP180;10528;52.124;5.196;2023-03-01T15:36:41;102479.00;;;12.50
20736;BMP180;10528;52.124;5.196;2023-03-01T15:39:39;102479.00;;;12.50
20736;BMP180;10528;52.124;5.196;2023-03-01T15:47:53;102460.00;;;12.40
20736;BMP180;10528;52.124;5.196;2023-03-01T15:50:25;102471.00;;;12.40
20736;BMP180;10528;52.124;5.196;2023-03-01T15:52:54;102479.00;;;12.40
20736;BMP180;10528;52.124;5.196;2023-03-01T15:55:30;102476.00;;;12.40
20736;BMP180;10528;52.124;5.196;2023-03-01T15:58:15;102467.00;;;12.40
20736;BMP180;10528;52.124;5.196;2023-03-01T16:00:44;102463.00;;;12.50
20736;BMP180;10528;52.124;5.196;2023-03-01T16:03:26;102460.00;;;12.50
20736;BMP180;10528;52.124;5.196;2023-03-01T16:05:53;102471.00;;;12.50
20736;BMP180;10528;52.124;5.196;2023-03-01T16:08:20;102459.00;;;12.40
20736;BMP180;10528;52.124;5.196;2023-03-01T16:10:47;102463.00;;;12.40
20736;BMP180;10528;52.124;5.196;2023-03-01T16:13:16;102457.00;;;12.30
20736;BMP180;10528;52.124;5.196;2023-03-01T16:15:44;102458.00;;;12.30